North Canton, Ohio
Current Conditions -  °F | °C
As of 3:51 PM on Friday 24 Oct 2014 (Local Time) from KCAK Reporting Station
Few Clouds Few Clouds  
Wind Chill: 61°   Ceiling: Unl
Heat Index: 61°   Visibility: 10mi
Dew Point: 39°   Wind: 7mph
Humidity: 44%   Direction: 230°SW
Pressure: 30.02"   Gusts: NA
Location:  40.88°N, 81.4°W
Report Text: KCAK 241951Z 23006KT 10SM FEW250 16/04 A3002 RMK AO2 SLP167 T01610039
Loading
Personal Weather Stations






























Interactive Weather Map New forecast layout! Learn more

10-Day Weather Forecast

Advertisements
Track Severe Weather on mobile